Time;durP1;ratioP1;P1;durP2;ratioP2;P2;SDS_P1;SDS_P2;PMS_P1;PMS_P2;Temp;Humidity;BMP_temperature;BMP_pressure;BME280_temperature;BME280_humidity;BME280_pressure;Samples;Min_cycle;Max_cycle;Signal;HPM_P1;HPM_P2
2023/01/08 00:02:09;;;;;;;20.83;4.10;;;10.00;99.90;;;;;;5052040;28;20041;-65
2023/01/08 00:04:34;;;;;;;19.40;4.25;;;10.00;99.90;;;;;;5050644;28;20029;-66
2023/01/08 00:07:00;;;;;;;20.13;4.28;;;9.90;99.90;;;;;;5051976;28;20021;-65
2023/01/08 00:09:26;;;;;;;18.08;4.43;;;10.00;99.90;;;;;;5051922;28;20048;-65
2023/01/08 00:11:52;;;;;;;17.80;4.35;;;9.90;99.90;;;;;;5051953;28;20078;-66
2023/01/08 00:14:17;;;;;;;12.95;3.55;;;10.00;99.90;;;;;;5052097;28;20029;-65
2023/01/08 00:16:43;;;;;;;14.68;4.35;;;10.00;99.90;;;;;;5052024;28;20021;-65
2023/01/08 00:19:13;;;;;;;18.02;4.30;;;10.00;99.90;;;;;;5051981;28;20017;-65
2023/01/08 00:21:39;;;;;;;14.63;3.70;;;9.90;99.90;;;;;;5055825;28;20028;-66
2023/01/08 00:24:04;;;;;;;15.52;3.88;;;9.90;99.90;;;;;;5056361;28;20024;-65
2023/01/08 00:26:30;;;;;;;16.58;3.92;;;10.00;99.90;;;;;;5055750;28;20040;-65
2023/01/08 00:28:56;;;;;;;15.05;4.15;;;10.00;99.90;;;;;;5055671;28;20508;-65
2023/01/08 00:31:22;;;;;;;14.30;3.97;;;10.00;99.90;;;;;;5054348;28;20549;-65
2023/01/08 00:33:47;;;;;;;12.77;3.00;;;10.00;99.90;;;;;;5055623;28;20489;-65
2023/01/08 00:36:16;;;;;;;13.85;3.90;;;10.00;99.90;;;;;;5055439;28;20052;-65
2023/01/08 00:38:43;;;;;;;13.75;3.45;;;10.00;99.90;;;;;;5055599;28;20028;-65
2023/01/08 00:41:09;;;;;;;13.30;3.50;;;10.00;99.90;;;;;;5055572;28;20036;-65
2023/01/08 00:43:35;;;;;;;11.43;2.95;;;10.00;99.90;;;;;;5055995;28;20028;-65
2023/01/08 00:46:01;;;;;;;12.43;3.70;;;10.00;99.90;;;;;;5055444;28;20021;-66
2023/01/08 00:48:27;;;;;;;11.85;3.15;;;10.00;99.90;;;;;;5054994;28;20386;-65
2023/01/08 00:50:53;;;;;;;12.43;3.20;;;9.90;99.90;;;;;;5055516;28;20033;-65
2023/01/08 00:53:20;;;;;;;13.32;3.15;;;10.00;99.90;;;;;;5055465;28;20529;-66
2023/01/08 00:55:46;;;;;;;15.10;3.65;;;9.90;99.90;;;;;;5055309;28;20045;-66
2023/01/08 00:58:12;;;;;;;9.75;2.95;;;9.90;99.90;;;;;;5055319;28;20029;-66
2023/01/08 01:00:41;;;;;;;13.48;3.33;;;9.90;99.90;;;;;;5055082;28;20059;-65
2023/01/08 01:03:07;;;;;;;13.32;3.60;;;9.90;99.90;;;;;;5054530;28;20029;-65
2023/01/08 01:05:32;;;;;;;13.07;3.83;;;9.90;99.90;;;;;;5055152;28;20394;-66
2023/01/08 01:07:58;;;;;;;12.73;3.47;;;9.90;99.90;;;;;;5055444;28;20033;-65
2023/01/08 01:10:24;;;;;;;12.50;3.63;;;10.00;99.90;;;;;;5054754;28;20032;-66
2023/01/08 01:12:50;;;;;;;12.02;3.47;;;9.90;99.90;;;;;;5054982;28;20032;-66
2023/01/08 01:15:17;;;;;;;11.73;3.35;;;9.90;99.90;;;;;;5055101;28;20029;-66
2023/01/08 01:17:44;;;;;;;11.05;3.60;;;9.90;99.90;;;;;;5054476;28;20128;-66
2023/01/08 01:20:14;;;;;;;12.95;3.42;;;9.80;99.90;;;;;;5054882;28;20469;-66
2023/01/08 01:22:40;;;;;;;16.10;3.70;;;9.90;99.90;;;;;;5054688;28;20488;-66
2023/01/08 01:25:06;;;;;;;14.68;3.60;;;9.80;99.90;;;;;;5054993;28;20029;-65
2023/01/08 01:27:32;;;;;;;14.25;3.42;;;9.90;99.90;;;;;;5054568;28;20155;-66
2023/01/08 01:29:57;;;;;;;11.18;3.05;;;9.90;99.90;;;;;;5054021;28;20124;-65
2023/01/08 01:32:23;;;;;;;16.95;4.18;;;9.80;99.90;;;;;;5053956;28;20029;-66
2023/01/08 01:34:49;;;;;;;15.13;3.58;;;9.80;99.90;;;;;;5054615;28;20025;-66
2023/01/08 01:37:15;;;;;;;13.35;3.28;;;9.70;99.90;;;;;;5054517;28;20021;-66
2023/01/08 01:39:45;;;;;;;14.38;3.35;;;9.70;99.90;;;;;;5054372;28;20044;-66
2023/01/08 01:44:57;;;;;;;12.75;3.10;;;9.70;99.90;;;;;;5054637;28;20036;-65
2023/01/08 01:47:31;;;;;;;13.05;3.10;;;9.70;99.90;;;;;;5054317;28;20454;-65
2023/01/08 01:50:01;;;;;;;11.40;3.25;;;9.70;99.90;;;;;;5054110;28;20029;-65
2023/01/08 01:52:31;;;;;;;13.23;3.35;;;9.70;99.90;;;;;;5054296;28;20540;-66
2023/01/08 01:55:00;;;;;;;14.30;3.38;;;9.70;99.90;;;;;;5054258;28;20116;-65
2023/01/08 01:57:28;;;;;;;11.82;2.92;;;9.70;99.90;;;;;;5053919;28;20067;-66
2023/01/08 01:59:55;;;;;;;12.15;3.50;;;9.70;99.90;;;;;;5053924;28;20033;-66
2023/01/08 02:02:20;;;;;;;13.73;3.08;;;9.70;99.90;;;;;;5053705;28;20075;-65
2023/01/08 02:04:46;;;;;;;14.45;3.30;;;9.70;99.90;;;;;;5054464;28;20021;-66
2023/01/08 02:07:26;;;;;;;15.85;3.47;;;9.70;99.90;;;;;;5053988;28;20033;-66
2023/01/08 02:10:18;;;;;;;15.77;3.25;;;9.70;99.90;;;;;;5053683;28;20432;-66
2023/01/08 02:12:50;;;;;;;14.63;3.30;;;9.70;99.90;;;;;;5054112;28;20482;-66
2023/01/08 02:15:33;;;;;;;13.30;3.30;;;9.60;99.90;;;;;;5053702;28;20040;-66
2023/01/08 02:18:11;;;;;;;11.95;3.00;;;9.60;99.90;;;;;;5053765;28;20100;-66
2023/01/08 02:20:43;;;;;;;16.92;3.40;;;9.60;99.90;;;;;;5053822;28;20074;-66
2023/01/08 02:23:44;;;;;;;13.88;3.45;;;9.60;99.90;;;;;;5054056;28;20417;-66
2023/01/08 02:26:21;;;;;;;11.32;3.10;;;9.60;99.90;;;;;;5053718;28;20024;-66
2023/01/08 02:28:58;;;;;;;15.93;3.78;;;9.60;99.90;;;;;;5053159;28;20049;-66
2023/01/08 02:31:27;;;;;;;13.15;3.10;;;9.60;99.90;;;;;;5053050;28;20417;-66
2023/01/08 02:33:52;;;;;;;11.80;3.30;;;9.60;99.90;;;;;;5053782;28;20538;-65
2023/01/08 02:36:24;;;;;;;12.23;2.83;;;9.60;99.90;;;;;;5053480;28;20108;-66
2023/01/08 02:39:10;;;;;;;11.95;3.15;;;9.60;99.90;;;;;;5053431;28;20036;-66
2023/01/08 02:42:03;;;;;;;15.13;3.45;;;9.60;99.90;;;;;;5052720;28;20025;-66
2023/01/08 02:44:53;;;;;;;9.27;3.38;;;9.60;99.90;;;;;;5052862;28;20501;-66
2023/01/08 02:47:31;;;;;;;11.43;2.85;;;9.60;99.90;;;;;;5053237;28;20422;-66
2023/01/08 02:50:07;;;;;;;10.88;3.20;;;9.60;99.90;;;;;;5053004;28;20551;-66
2023/01/08 02:52:39;;;;;;;12.35;3.00;;;9.70;99.90;;;;;;5053137;28;20028;-66
2023/01/08 02:55:05;;;;;;;11.02;2.72;;;9.60;99.90;;;;;;5053141;28;20029;-66
2023/01/08 02:57:32;;;;;;;8.82;2.63;;;9.60;99.90;;;;;;5052848;28;20021;-66
2023/01/08 02:59:58;;;;;;;10.57;3.20;;;9.70;99.90;;;;;;5052986;28;20031;-66
2023/01/08 03:02:28;;;;;;;8.82;3.00;;;9.70;99.90;;;;;;5052843;28;20096;-66
2023/01/08 03:05:00;;;;;;;9.65;3.28;;;9.70;99.90;;;;;;5052929;28;20090;-66
2023/01/08 03:07:26;;;;;;;10.77;2.80;;;9.70;99.90;;;;;;5051746;28;20025;-66
2023/01/08 03:09:52;;;;;;;10.30;3.22;;;9.70;99.90;;;;;;5052655;28;20298;-66
2023/01/08 03:12:33;;;;;;;10.68;2.60;;;9.80;99.90;;;;;;5052997;28;20381;-66
2023/01/08 03:15:05;;;;;;;9.57;2.88;;;9.80;99.90;;;;;;5052535;28;20025;-66
2023/01/08 03:17:34;;;;;;;10.40;2.40;;;9.80;99.90;;;;;;5053104;28;20413;-65
2023/01/08 03:20:13;;;;;;;11.57;2.83;;;9.80;99.90;;;;;;5052508;28;20032;-66
2023/01/08 03:22:43;;;;;;;10.30;3.00;;;9.80;99.90;;;;;;5052597;28;20021;-66
2023/01/08 03:25:11;;;;;;;12.52;2.88;;;9.80;99.90;;;;;;5052613;28;20094;-65
2023/01/08 03:27:43;;;;;;;8.02;2.60;;;9.80;99.90;;;;;;5052192;28;20152;-66
2023/01/08 03:30:10;;;;;;;11.90;3.20;;;9.80;99.90;;;;;;5051960;28;20041;-66
2023/01/08 03:32:39;;;;;;;8.95;2.80;;;9.70;99.90;;;;;;5052270;28;20370;-66
2023/01/08 03:35:08;;;;;;;9.20;2.42;;;9.80;99.90;;;;;;5052364;28;20083;-66
2023/01/08 03:37:38;;;;;;;9.32;2.42;;;9.80;99.90;;;;;;5052360;28;20385;-66
2023/01/08 03:40:09;;;;;;;9.40;2.50;;;9.70;99.90;;;;;;5052273;28;20029;-65
2023/01/08 03:42:35;;;;;;;9.63;2.78;;;9.80;99.90;;;;;;5052283;28;20433;-66
2023/01/08 03:45:01;;;;;;;10.00;2.90;;;9.80;99.90;;;;;;5051847;28;20044;-65
2023/01/08 03:47:30;;;;;;;7.82;2.70;;;9.80;99.90;;;;;;5050993;28;20394;-65
2023/01/08 03:49:59;;;;;;;7.43;2.53;;;9.80;99.90;;;;;;5052429;28;20040;-65
2023/01/08 03:52:29;;;;;;;6.43;2.30;;;9.80;99.90;;;;;;5052085;28;20570;-66
2023/01/08 03:54:55;;;;;;;8.75;2.45;;;9.80;99.90;;;;;;5051993;28;20078;-66
2023/01/08 03:57:21;;;;;;;7.65;2.15;;;9.90;99.90;;;;;;5051641;28;20037;-66
2023/01/08 03:59:47;;;;;;;7.00;2.22;;;9.90;99.90;;;;;;5051977;28;20033;-65
2023/01/08 04:02:14;;;;;;;8.27;2.60;;;9.90;99.90;;;;;;5052101;28;20025;-66
2023/01/08 04:04:39;;;;;;;8.25;2.72;;;9.80;99.90;;;;;;5051960;28;20490;-66
2023/01/08 04:07:06;;;;;;;9.85;2.63;;;9.80;99.90;;;;;;5051958;28;20036;-66
2023/01/08 04:09:32;;;;;;;6.95;2.17;;;9.80;99.90;;;;;;5051900;28;20044;-66
2023/01/08 04:11:58;;;;;;;7.90;2.30;;;9.80;99.90;;;;;;5052039;28;20025;-66
2023/01/08 04:14:23;;;;;;;8.55;2.10;;;9.80;99.90;;;;;;5051773;28;20036;-66
2023/01/08 04:16:49;;;;;;;7.28;2.20;;;9.90;99.90;;;;;;5052398;28;20032;-66
2023/01/08 04:19:15;;;;;;;7.93;2.65;;;9.80;99.90;;;;;;5051820;28;20551;-66
2023/01/08 04:21:40;;;;;;;8.50;2.30;;;9.90;99.90;;;;;;5051880;28;20112;-65
2023/01/08 04:24:06;;;;;;;8.85;2.63;;;9.90;99.90;;;;;;5052335;28;20513;-65
2023/01/08 04:26:32;;;;;;;5.25;1.90;;;9.90;99.90;;;;;;5051483;28;20033;-65
2023/01/08 04:29:02;;;;;;;6.53;2.30;;;9.80;99.90;;;;;;5051527;28;20041;-65
2023/01/08 04:31:27;;;;;;;6.03;2.20;;;9.90;99.90;;;;;;5051674;28;20033;-65
2023/01/08 04:33:53;;;;;;;7.00;2.17;;;9.90;99.90;;;;;;5051707;28;20031;-65
2023/01/08 04:36:19;;;;;;;9.15;2.17;;;9.90;99.90;;;;;;5051928;28;20474;-65
2023/01/08 04:38:45;;;;;;;7.63;2.28;;;9.90;99.90;;;;;;5051665;28;20539;-65
2023/01/08 04:41:10;;;;;;;9.95;2.38;;;9.90;99.90;;;;;;5051648;28;20025;-65
2023/01/08 04:43:36;;;;;;;6.65;2.15;;;9.90;99.90;;;;;;5051635;28;20440;-65
2023/01/08 04:46:05;;;;;;;7.03;2.20;;;10.00;99.90;;;;;;5051629;28;20021;-65
2023/01/08 04:48:31;;;;;;;6.70;1.98;;;10.00;99.90;;;;;;5051482;28;20119;-65
2023/01/08 04:50:58;;;;;;;8.73;2.40;;;10.00;99.90;;;;;;5051473;28;20140;-65
2023/01/08 04:53:24;;;;;;;6.53;2.00;;;10.00;99.90;;;;;;5051641;28;20079;-65
2023/01/08 04:55:50;;;;;;;10.25;2.28;;;10.10;99.90;;;;;;5051023;28;20433;-65
2023/01/08 04:58:16;;;;;;;7.55;2.30;;;10.10;99.90;;;;;;5051583;28;20025;-65
2023/01/08 05:00:41;;;;;;;7.00;2.15;;;10.10;99.90;;;;;;5051788;28;20021;-65
2023/01/08 05:03:07;;;;;;;6.00;2.10;;;10.00;99.90;;;;;;5051319;28;20032;-65
2023/01/08 05:05:34;;;;;;;8.45;2.20;;;10.10;99.90;;;;;;5052416;28;20025;-65
2023/01/08 05:07:59;;;;;;;6.60;1.90;;;10.10;99.90;;;;;;5054457;28;20041;-65
2023/01/08 05:10:25;;;;;;;7.53;2.50;;;10.10;99.90;;;;;;5054631;28;20485;-65
2023/01/08 05:12:51;;;;;;;6.25;2.03;;;10.10;99.90;;;;;;5055069;28;20063;-65
2023/01/08 05:15:16;;;;;;;7.07;2.53;;;10.10;99.90;;;;;;5054899;28;20052;-65
2023/01/08 05:17:42;;;;;;;5.55;2.10;;;10.10;99.90;;;;;;5055279;28;20075;-65
2023/01/08 05:20:08;;;;;;;5.55;2.30;;;10.10;99.90;;;;;;5055079;28;20025;-65
2023/01/08 05:22:34;;;;;;;6.97;2.35;;;10.10;99.90;;;;;;5054755;28;20311;-65
2023/01/08 05:25:00;;;;;;;5.25;1.77;;;10.00;99.90;;;;;;5054972;28;20025;-65
2023/01/08 05:27:27;;;;;;;8.05;2.10;;;10.00;99.90;;;;;;5054567;28;20075;-65
2023/01/08 05:29:53;;;;;;;4.68;1.80;;;10.00;99.90;;;;;;5054540;28;20091;-65
2023/01/08 05:32:19;;;;;;;5.95;1.98;;;10.00;99.90;;;;;;5054558;28;20037;-65
2023/01/08 05:34:45;;;;;;;6.10;1.85;;;10.00;99.90;;;;;;5054802;28;20064;-65
2023/01/08 05:37:11;;;;;;;5.72;1.85;;;10.00;99.90;;;;;;5054724;28;20187;-65
2023/01/08 05:39:37;;;;;;;5.00;1.90;;;10.00;99.90;;;;;;5054217;28;20087;-65
2023/01/08 05:42:03;;;;;;;5.00;1.83;;;10.00;99.90;;;;;;5054530;28;20036;-65
2023/01/08 05:44:29;;;;;;;5.63;2.00;;;10.00;99.90;;;;;;5054619;28;20064;-65
2023/01/08 05:46:56;;;;;;;6.47;2.10;;;10.00;99.90;;;;;;5054227;28;20053;-65
2023/01/08 05:49:22;;;;;;;7.10;1.90;;;10.00;99.90;;;;;;5054565;28;20124;-65
2023/01/08 05:51:48;;;;;;;6.40;2.13;;;9.90;99.90;;;;;;5054073;28;20070;-65
2023/01/08 05:54:14;;;;;;;10.45;2.47;;;9.90;99.90;;;;;;5053897;28;20029;-65
2023/01/08 05:56:42;;;;;;;6.80;2.17;;;9.90;99.90;;;;;;5054243;28;20025;-65
2023/01/08 05:59:10;;;;;;;5.00;1.95;;;9.80;99.90;;;;;;5053995;28;20518;-64
2023/01/08 06:01:36;;;;;;;5.88;2.05;;;9.80;99.90;;;;;;5054226;28;20036;-65
2023/01/08 06:04:02;;;;;;;6.38;1.88;;;9.90;99.90;;;;;;5054287;28;20033;-65
2023/01/08 06:06:28;;;;;;;8.45;1.80;;;9.80;99.90;;;;;;5054034;28;20025;-65
2023/01/08 06:08:53;;;;;;;5.55;2.00;;;9.80;99.90;;;;;;5053723;28;20033;-65
2023/01/08 06:11:19;;;;;;;8.02;1.75;;;9.80;99.90;;;;;;5054363;28;20375;-65
2023/01/08 06:13:45;;;;;;;10.43;2.05;;;9.80;99.90;;;;;;5053736;28;20024;-65
2023/01/08 06:16:11;;;;;;;9.82;1.85;;;9.80;99.90;;;;;;5053670;28;20029;-65
2023/01/08 06:18:36;;;;;;;7.63;1.80;;;9.80;99.90;;;;;;5051459;28;20040;-65
2023/01/08 06:21:03;;;;;;;6.00;2.05;;;9.80;99.90;;;;;;5053697;28;20114;-65
2023/01/08 06:23:29;;;;;;;6.47;1.95;;;9.80;99.90;;;;;;5053445;28;20024;-65
2023/01/08 06:25:57;;;;;;;8.77;2.10;;;9.80;99.90;;;;;;5053629;28;20028;-65
2023/01/08 06:28:24;;;;;;;7.93;2.03;;;9.80;99.90;;;;;;5053403;28;20065;-65
2023/01/08 06:30:50;;;;;;;8.63;2.15;;;9.80;99.90;;;;;;5053454;28;20045;-64
2023/01/08 06:33:16;;;;;;;11.75;2.20;;;9.80;99.90;;;;;;5053553;28;20021;-65
2023/01/08 06:35:41;;;;;;;8.93;2.20;;;9.80;99.90;;;;;;5053348;28;20032;-65
2023/01/08 06:38:08;;;;;;;9.05;2.20;;;9.70;99.90;;;;;;5053487;28;20079;-65
2023/01/08 06:40:33;;;;;;;8.73;2.03;;;9.70;99.90;;;;;;5053227;28;20025;-65
2023/01/08 06:43:03;;;;;;;6.75;1.77;;;9.70;99.90;;;;;;5053453;28;20478;-65
2023/01/08 06:45:29;;;;;;;6.50;2.22;;;9.70;99.90;;;;;;5053610;28;20032;-65
2023/01/08 06:47:59;;;;;;;8.82;2.00;;;9.70;99.90;;;;;;5052879;28;20025;-65
2023/01/08 06:50:24;;;;;;;8.07;2.10;;;9.70;99.90;;;;;;5052937;28;20035;-65
2023/01/08 06:52:54;;;;;;;6.78;2.00;;;9.70;99.90;;;;;;5053193;28;20100;-65
2023/01/08 06:55:21;;;;;;;8.05;2.00;;;9.70;99.90;;;;;;5053065;28;20161;-65
2023/01/08 06:57:46;;;;;;;7.85;2.15;;;9.60;99.90;;;;;;5052974;28;20091;-65
2023/01/08 07:00:13;;;;;;;6.68;2.17;;;9.60;99.90;;;;;;5053071;28;20024;-65
2023/01/08 07:02:38;;;;;;;7.32;2.10;;;9.60;99.90;;;;;;5052930;28;20032;-65
2023/01/08 07:05:04;;;;;;;6.35;2.08;;;9.60;99.90;;;;;;5052766;28;20428;-65
2023/01/08 07:07:30;;;;;;;8.07;2.13;;;9.60;99.90;;;;;;5052624;28;20385;-65
2023/01/08 07:09:55;;;;;;;7.10;2.35;;;9.60;99.90;;;;;;5052647;28;20048;-65
2023/01/08 07:12:21;;;;;;;6.25;2.25;;;9.70;99.90;;;;;;5052817;28;20032;-65
2023/01/08 07:14:47;;;;;;;10.88;2.25;;;9.60;99.90;;;;;;5052754;28;20100;-65
2023/01/08 07:17:12;;;;;;;7.05;2.35;;;9.60;99.90;;;;;;5052645;28;20110;-65
2023/01/08 07:19:38;;;;;;;6.13;1.90;;;9.70;99.90;;;;;;5052614;28;20025;-65
2023/01/08 07:22:04;;;;;;;9.40;2.60;;;9.70;99.90;;;;;;5052721;28;20017;-65
2023/01/08 07:24:29;;;;;;;7.05;2.20;;;9.60;99.90;;;;;;5052582;28;20397;-65
2023/01/08 07:26:55;;;;;;;6.13;2.35;;;9.70;99.90;;;;;;5052560;28;20031;-65
2023/01/08 07:29:21;;;;;;;8.07;2.45;;;9.70;99.90;;;;;;5051750;28;20056;-65
2023/01/08 07:31:47;;;;;;;8.15;2.40;;;9.70;99.90;;;;;;5052656;28;20032;-65
2023/01/08 07:34:12;;;;;;;6.35;2.22;;;9.70;99.90;;;;;;5052314;28;20037;-65
2023/01/08 07:36:38;;;;;;;6.03;2.72;;;9.70;99.90;;;;;;5052048;28;20032;-65
2023/01/08 07:39:04;;;;;;;7.63;2.75;;;9.70;99.90;;;;;;5052396;28;20036;-65
2023/01/08 07:41:29;;;;;;;9.95;3.00;;;9.60;99.90;;;;;;5052592;28;20075;-65
2023/01/08 07:43:55;;;;;;;7.65;3.72;;;9.70;99.90;;;;;;5052318;28;20386;-65
2023/01/08 07:46:21;;;;;;;8.68;3.83;;;9.70;99.90;;;;;;5052225;28;20043;-66
2023/01/08 07:48:47;;;;;;;6.45;3.10;;;9.70;99.90;;;;;;5052168;28;20028;-65
2023/01/08 07:51:13;;;;;;;8.00;3.38;;;9.70;99.90;;;;;;5052154;28;20041;-65
2023/01/08 07:53:39;;;;;;;6.15;3.30;;;9.70;99.90;;;;;;5052069;28;20025;-65
2023/01/08 07:56:07;;;;;;;10.43;4.85;;;9.70;99.90;;;;;;5052180;28;20029;-65
2023/01/08 07:58:34;;;;;;;9.80;4.20;;;9.70;99.90;;;;;;5052429;28;20013;-66
2023/01/08 08:01:00;;;;;;;8.20;4.72;;;9.70;99.90;;;;;;5050793;28;20570;-66
2023/01/08 08:03:26;;;;;;;10.88;5.10;;;9.70;99.90;;;;;;5051619;28;20033;-65
2023/01/08 08:05:52;;;;;;;11.00;6.43;;;9.70;99.90;;;;;;5052024;28;20111;-65
2023/01/08 08:08:19;;;;;;;8.95;6.18;;;9.70;99.90;;;;;;5052405;28;20037;-65
2023/01/08 08:10:44;;;;;;;10.60;6.55;;;9.70;99.90;;;;;;5051915;28;20508;-65
2023/01/08 08:13:10;;;;;;;10.40;6.55;;;9.70;99.90;;;;;;5051921;28;20071;-65
2023/01/08 08:15:38;;;;;;;14.15;6.50;;;9.70;99.90;;;;;;5052309;28;20385;-65
2023/01/08 08:18:04;;;;;;;10.60;7.18;;;9.70;99.90;;;;;;5051350;28;20021;-65
2023/01/08 08:20:30;;;;;;;11.63;8.00;;;9.70;99.90;;;;;;5051412;28;20521;-65
2023/01/08 08:23:07;;;;;;;16.58;8.40;;;9.70;99.90;;;;;;5051982;28;20029;-65
2023/01/08 08:25:33;;;;;;;11.30;7.55;;;9.70;99.90;;;;;;5052236;28;20044;-65
2023/01/08 08:28:00;;;;;;;12.77;7.25;;;9.70;99.90;;;;;;5051558;28;20036;-65
2023/01/08 08:30:30;;;;;;;11.70;7.40;;;9.70;99.90;;;;;;5051692;28;20037;-65
2023/01/08 08:32:59;;;;;;;11.48;6.50;;;9.70;99.90;;;;;;5051286;28;20025;-65
2023/01/08 08:35:25;;;;;;;12.50;7.45;;;9.70;99.90;;;;;;5051727;28;20032;-65
2023/01/08 08:37:51;;;;;;;13.13;7.93;;;9.70;99.90;;;;;;5051824;28;20025;-65
2023/01/08 08:40:17;;;;;;;14.60;8.10;;;9.70;99.90;;;;;;5052442;28;20447;-65
2023/01/08 08:42:42;;;;;;;13.13;8.00;;;9.70;99.90;;;;;;5055635;28;20435;-65
2023/01/08 08:45:08;;;;;;;16.33;8.38;;;9.70;99.90;;;;;;5055659;28;20025;-65
2023/01/08 08:47:34;;;;;;;14.48;8.68;;;9.70;99.90;;;;;;5055092;28;20032;-65
2023/01/08 08:50:00;;;;;;;12.43;8.07;;;9.70;99.90;;;;;;5055340;28;20040;-65
2023/01/08 08:52:26;;;;;;;11.77;8.25;;;9.70;99.90;;;;;;5054914;28;20178;-65
2023/01/08 08:54:52;;;;;;;13.52;7.68;;;9.70;99.90;;;;;;5055815;28;20108;-63
2023/01/08 08:57:18;;;;;;;11.50;8.02;;;9.70;99.90;;;;;;5054142;28;20025;-65
2023/01/08 08:59:44;;;;;;;12.60;7.45;;;9.80;99.90;;;;;;5055219;28;20027;-65
2023/01/08 09:02:10;;;;;;;14.30;8.05;;;9.80;99.90;;;;;;5054795;28;20036;-64
2023/01/08 09:04:36;;;;;;;13.30;7.97;;;9.80;99.90;;;;;;5055368;28;20425;-65
2023/01/08 09:07:02;;;;;;;11.77;7.05;;;9.90;99.90;;;;;;5054709;28;20032;-65
2023/01/08 09:09:28;;;;;;;11.60;6.88;;;9.90;99.90;;;;;;5054855;28;20477;-63
2023/01/08 09:11:54;;;;;;;11.98;7.13;;;9.90;99.90;;;;;;5055175;28;20036;-65
2023/01/08 09:14:20;;;;;;;12.50;7.00;;;9.90;99.90;;;;;;5055003;28;20053;-65
2023/01/08 09:16:46;;;;;;;10.88;7.28;;;9.90;99.90;;;;;;5054575;28;20027;-66
2023/01/08 09:19:12;;;;;;;12.50;7.00;;;9.90;99.90;;;;;;5055084;28;20034;-64
2023/01/08 09:21:37;;;;;;;13.15;7.10;;;10.00;99.90;;;;;;5053894;28;20029;-64
2023/01/08 09:24:03;;;;;;;13.20;6.82;;;10.00;99.90;;;;;;5054592;28;20737;-64
2023/01/08 09:26:29;;;;;;;13.27;6.82;;;10.00;99.90;;;;;;5053735;28;20109;-64
2023/01/08 09:28:57;;;;;;;8.45;6.00;;;10.10;99.90;;;;;;5053674;28;20037;-65
2023/01/08 09:31:23;;;;;;;11.27;6.05;;;10.00;99.90;;;;;;5053575;28;20044;-64
2023/01/08 09:33:49;;;;;;;9.40;5.32;;;10.10;99.90;;;;;;5053862;28;20091;-64
2023/01/08 09:36:15;;;;;;;8.13;5.65;;;10.10;99.90;;;;;;5054568;28;20083;-64
2023/01/08 09:38:42;;;;;;;9.85;5.40;;;10.10;99.90;;;;;;5054333;28;20029;-64
2023/01/08 09:41:18;;;;;;;7.75;4.70;;;10.00;99.90;;;;;;5054292;28;20029;-65
2023/01/08 09:43:48;;;;;;;9.48;4.65;;;10.10;99.90;;;;;;5054343;28;20104;-64
2023/01/08 09:46:17;;;;;;;6.60;4.28;;;10.10;99.90;;;;;;5054157;28;20055;-65
2023/01/08 09:48:44;;;;;;;7.60;4.22;;;10.10;99.90;;;;;;5054245;28;20033;-65
2023/01/08 09:51:16;;;;;;;6.53;3.97;;;10.10;99.90;;;;;;5053763;28;20041;-64
2023/01/08 09:53:43;;;;;;;7.20;4.13;;;10.20;99.90;;;;;;5054178;28;20040;-63
2023/01/08 09:56:18;;;;;;;7.70;4.10;;;10.20;99.90;;;;;;5054461;28;20056;-64
2023/01/08 09:58:47;;;;;;;4.50;3.30;;;10.20;99.90;;;;;;5054491;28;20025;-64
2023/01/08 10:01:25;;;;;;;7.47;3.47;;;10.20;99.90;;;;;;5053022;28;20035;-62
2023/01/08 10:04:04;;;;;;;5.60;3.42;;;10.20;99.90;;;;;;5053653;28;20044;-63
2023/01/08 10:06:31;;;;;;;7.57;4.00;;;10.20;99.90;;;;;;5052479;28;20025;-64
2023/01/08 10:08:57;;;;;;;5.80;3.70;;;10.10;99.90;;;;;;5052606;28;20025;-66
2023/01/08 10:11:27;;;;;;;5.93;3.50;;;10.10;99.90;;;;;;5053702;28;20029;-66
2023/01/08 10:13:55;;;;;;;7.57;3.97;;;10.10;99.90;;;;;;5053731;28;20029;-64
2023/01/08 10:16:32;;;;;;;23.80;21.60;;;10.10;99.90;;;;;;5053765;28;20029;-65
2023/01/08 10:18:58;;;;;;;5.78;3.63;;;10.10;99.90;;;;;;5053385;28;20100;-63
2023/01/08 10:21:31;;;;;;;7.55;3.75;;;10.10;99.90;;;;;;5053523;28;20028;-63
2023/01/08 10:23:58;;;;;;;5.25;3.40;;;10.10;99.90;;;;;;5053754;28;20025;-63
2023/01/08 10:26:36;;;;;;;5.90;3.30;;;10.10;99.90;;;;;;5053623;28;20037;-63
2023/01/08 10:29:06;;;;;;;6.07;3.33;;;10.20;99.90;;;;;;5052571;28;20139;-73
2023/01/08 10:31:32;;;;;;;6.93;3.90;;;10.20;99.90;;;;;;5053740;28;20163;-66
2023/01/08 10:34:09;;;;;;;7.15;3.95;;;10.20;99.90;;;;;;5053565;28;20162;-64
2023/01/08 10:36:39;;;;;;;8.93;3.78;;;10.20;99.90;;;;;;5053455;28;20090;-63
2023/01/08 10:39:05;;;;;;;8.40;4.50;;;10.20;99.90;;;;;;5053018;28;20029;-63
2023/01/08 10:41:37;;;;;;;8.05;5.35;;;10.20;99.90;;;;;;5053418;28;20031;-63
2023/01/08 10:44:05;;;;;;;10.60;6.28;;;10.20;99.90;;;;;;5053077;28;20028;-63
2023/01/08 10:46:35;;;;;;;6.43;4.30;;;10.20;99.90;;;;;;5053291;28;20515;-62
2023/01/08 10:49:04;;;;;;;7.38;4.50;;;10.20;99.90;;;;;;5053639;28;20095;-62
2023/01/08 10:51:31;;;;;;;7.38;4.10;;;10.20;99.90;;;;;;5053154;28;20033;-62
2023/01/08 10:54:33;;;;;;;7.85;4.50;;;10.20;99.90;;;;;;5053220;28;20045;-62
2023/01/08 10:56:59;;;;;;;4.88;3.70;;;10.30;99.90;;;;;;5052816;28;20079;-62
2023/01/08 10:59:25;;;;;;;5.70;4.05;;;10.30;99.90;;;;;;5052967;28;20437;-62
2023/01/08 11:01:56;;;;;;;5.13;3.92;;;10.40;99.90;;;;;;5052923;28;20112;-63
2023/01/08 11:04:22;;;;;;;7.05;3.47;;;10.60;99.90;;;;;;5052151;28;20033;-62
2023/01/08 11:06:48;;;;;;;4.68;3.10;;;10.60;99.90;;;;;;5052899;28;20112;-62
2023/01/08 11:09:29;;;;;;;5.88;3.67;;;10.70;99.90;;;;;;5052735;28;20052;-62
2023/01/08 11:11:56;;;;;;;6.05;4.07;;;10.60;99.90;;;;;;5051823;28;20040;-63
2023/01/08 11:14:28;;;;;;;8.02;4.90;;;10.60;99.90;;;;;;5052452;28;20104;-63
2023/01/08 11:16:55;;;;;;;8.95;6.93;;;10.50;99.90;;;;;;5052245;28;20031;-64
2023/01/08 11:19:32;;;;;;;6.03;5.05;;;10.50;99.90;;;;;;5052830;28;20450;-63
2023/01/08 11:21:59;;;;;;;8.43;6.10;;;10.50;99.90;;;;;;5052847;28;20044;-64
2023/01/08 11:24:34;;;;;;;6.13;4.40;;;10.60;99.90;;;;;;5052540;28;20051;-63
2023/01/08 11:27:09;;;;;;;7.13;4.05;;;10.80;99.90;;;;;;5051951;28;20037;-63
2023/01/08 11:29:48;;;;;;;6.25;4.18;;;10.90;99.90;;;;;;5051751;28;20056;-63
2023/01/08 11:32:14;;;;;;;4.28;3.53;;;10.90;99.90;;;;;;5052376;28;20102;-63
2023/01/08 11:35:09;;;;;;;5.60;3.63;;;11.00;99.90;;;;;;5052324;28;20477;-63
2023/01/08 11:37:52;;;;;;;5.97;3.67;;;10.90;99.90;;;;;;5046644;28;20105;-64
2023/01/08 11:40:37;;;;;;;5.57;4.30;;;10.80;99.90;;;;;;5052376;28;20541;-63
2023/01/08 11:43:11;;;;;;;6.05;3.97;;;10.90;99.90;;;;;;5052026;28;20113;-65
2023/01/08 11:45:55;;;;;;;;;;;10.90;99.90;;;;;;5053021;28;20057;-63
2023/01/08 11:48:38;;;;;;;5.28;4.35;;;10.90;99.90;;;;;;5052432;28;19909;-63
2023/01/08 11:51:32;;;;;;;8.38;4.90;;;11.20;99.90;;;;;;5051840;28;20037;-63
2023/01/08 11:54:26;;;;;;;6.07;4.00;;;11.50;99.90;;;;;;5052007;28;20032;-64
2023/01/08 11:57:16;;;;;;;7.55;3.90;;;11.60;99.90;;;;;;5044270;28;20279;-63
2023/01/08 11:59:47;;;;;;;5.85;4.22;;;11.50;99.90;;;;;;5051658;28;20028;-64
2023/01/08 12:02:34;;;;;;;5.53;3.90;;;11.30;99.90;;;;;;5052061;28;20028;-64
2023/01/08 12:05:00;;;;;;;3.90;3.50;;;11.20;99.90;;;;;;5051701;28;20029;-64
2023/01/08 12:07:35;;;;;;;6.78;4.15;;;11.30;99.90;;;;;;5052001;28;20032;-63
2023/01/08 12:10:44;;;;;;;5.45;3.80;;;11.50;99.90;;;;;;5051121;28;20254;-64
2023/01/08 12:13:33;;;;;;;6.45;4.32;;;11.40;99.90;;;;;;5051746;28;20025;-64
2023/01/08 12:16:24;;;;;;;5.28;4.43;;;11.60;99.90;;;;;;5055015;28;20021;-63
2023/01/08 12:19:17;;;;;;;6.00;4.43;;;11.80;99.90;;;;;;5056121;28;20033;-64
2023/01/08 12:21:50;;;;;;;5.85;4.05;;;12.00;99.90;;;;;;5056291;28;20028;-64
2023/01/08 12:24:53;;;;;;;6.38;4.05;;;12.10;99.90;;;;;;5056015;28;20478;-63
2023/01/08 12:27:41;;;;;;;7.95;4.70;;;11.90;99.90;;;;;;5055743;28;20118;-63
2023/01/08 12:30:35;;;;;;;6.22;4.22;;;11.90;99.90;;;;;;5055659;28;20381;-63
2023/01/08 12:33:27;;;;;;;;;;;12.00;99.90;;;;;;5056214;28;20041;-64
2023/01/08 12:35:56;;;;;;;8.88;5.30;;;12.30;99.90;;;;;;5054396;28;19915;-63
2023/01/08 12:38:29;;;;;;;7.20;6.15;;;12.80;99.90;;;;;;5055515;28;20036;-63
2023/01/08 12:40:59;;;;;;;6.20;4.75;;;13.00;99.90;;;;;;5055615;28;20032;-63
2023/01/08 12:44:01;;;;;;;9.13;5.00;;;12.80;99.90;;;;;;5055641;28;20074;-63
2023/01/08 12:46:36;;;;;;;7.88;5.28;;;12.50;99.90;;;;;;5013533;28;20045;-63
2023/01/08 12:49:04;;;;;;;6.72;5.28;;;12.60;99.90;;;;;;5013455;28;20037;-64
2023/01/08 12:51:50;;;;;;;11.02;6.93;;;12.80;99.90;;;;;;5013570;28;20100;-63
2023/01/08 12:54:51;;;;;;;10.48;6.70;;;12.80;99.90;;;;;;5000211;28;20486;-63
2023/01/08 12:57:19;;;;;;;7.28;5.85;;;13.00;99.90;;;;;;4936170;29;20433;-63
2023/01/08 12:59:59;;;;;;;8.48;5.82;;;13.00;99.90;;;;;;4935737;29;20466;-64
2023/01/08 13:02:35;;;;;;;6.50;4.78;;;13.10;99.90;;;;;;4934792;29;20110;-64
2023/01/08 13:05:12;;;;;;;7.30;4.97;;;12.90;99.90;;;;;;4935400;29;20099;-61
2023/01/08 13:07:53;;;;;;;6.90;4.38;;;12.80;99.90;;;;;;4934764;29;20075;-62